sensor_id;sensor_type;location;lat;lon;timestamp;pressure;altitude;pressure_sealevel;temperature;humidity
16595;BME280;8410;52.532;13.336;2023-04-20T00:01:29;101647.63;;;7.32;100.00
16595;BME280;8410;52.532;13.336;2023-04-20T00:03:57;101644.34;;;7.34;100.00
16595;BME280;8410;52.532;13.336;2023-04-20T00:06:25;101642.09;;;7.21;100.00
16595;BME280;8410;52.532;13.336;2023-04-20T00:08:55;101636.63;;;7.78;100.00
16595;BME280;8410;52.532;13.336;2023-04-20T00:11:22;101647.00;;;7.58;99.16
16595;BME280;8410;52.532;13.336;2023-04-20T00:13:49;101647.28;;;7.43;99.93
16595;BME280;8410;52.532;13.336;2023-04-20T00:16:18;101645.34;;;6.96;100.00
16595;BME280;8410;52.532;13.336;2023-04-20T00:18:46;101645.38;;;6.57;100.00
16595;BME280;8410;52.532;13.336;2023-04-20T00:21:14;101635.16;;;6.76;100.00
16595;BME280;8410;52.532;13.336;2023-04-20T00:23:42;101638.41;;;7.14;100.00
16595;BME280;8410;52.532;13.336;2023-04-20T00:26:09;101642.63;;;7.35;99.27
16595;BME280;8410;52.532;13.336;2023-04-20T00:28:37;101641.09;;;7.38;100.00
16595;BME280;8410;52.532;13.336;2023-04-20T00:31:04;101648.38;;;7.50;100.00
16595;BME280;8410;52.532;13.336;2023-04-20T00:33:33;101640.66;;;7.27;100.00
16595;BME280;8410;52.532;13.336;2023-04-20T00:36:01;101643.19;;;6.85;100.00
16595;BME280;8410;52.532;13.336;2023-04-20T00:38:28;101633.72;;;7.04;100.00
16595;BME280;8410;52.532;13.336;2023-04-20T00:40:56;101633.84;;;7.71;99.35
16595;BME280;8410;52.532;13.336;2023-04-20T00:43:24;101636.75;;;7.16;100.00
16595;BME280;8410;52.532;13.336;2023-04-20T00:45:51;101635.53;;;7.06;100.00
16595;BME280;8410;52.532;13.336;2023-04-20T00:48:19;101646.03;;;7.34;100.00
16595;BME280;8410;52.532;13.336;2023-04-20T00:50:49;101635.09;;;6.96;100.00
16595;BME280;8410;52.532;13.336;2023-04-20T00:53:17;101633.78;;;7.05;100.00
16595;BME280;8410;52.532;13.336;2023-04-20T00:55:45;101630.50;;;7.51;100.00
16595;BME280;8410;52.532;13.336;2023-04-20T00:58:13;101627.78;;;7.69;100.00
16595;BME280;8410;52.532;13.336;2023-04-20T01:00:40;101623.59;;;7.71;100.00
16595;BME280;8410;52.532;13.336;2023-04-20T01:03:08;101625.41;;;7.10;100.00
16595;BME280;8410;52.532;13.336;2023-04-20T01:05:36;101629.09;;;7.16;100.00
16595;BME280;8410;52.532;13.336;2023-04-20T01:08:05;101633.13;;;7.53;100.00
16595;BME280;8410;52.532;13.336;2023-04-20T01:10:32;101627.03;;;7.28;100.00
16595;BME280;8410;52.532;13.336;2023-04-20T01:12:59;101620.44;;;7.79;99.61
16595;BME280;8410;52.532;13.336;2023-04-20T01:15:28;101634.44;;;7.87;99.21
16595;BME280;8410;52.532;13.336;2023-04-20T01:17:55;101624.16;;;7.87;99.45
16595;BME280;8410;52.532;13.336;2023-04-20T01:20:24;101621.84;;;7.70;99.25
16595;BME280;8410;52.532;13.336;2023-04-20T01:22:52;101620.19;;;8.42;99.06
16595;BME280;8410;52.532;13.336;2023-04-20T01:25:20;101613.09;;;8.10;98.16
16595;BME280;8410;52.532;13.336;2023-04-20T01:27:48;101618.38;;;7.47;100.00
16595;BME280;8410;52.532;13.336;2023-04-20T01:30:16;101618.22;;;7.65;97.95
16595;BME280;8410;52.532;13.336;2023-04-20T01:32:43;101617.66;;;7.29;100.00
16595;BME280;8410;52.532;13.336;2023-04-20T01:35:12;101622.34;;;7.18;100.00
16595;BME280;8410;52.532;13.336;2023-04-20T01:37:40;101621.66;;;7.22;100.00
16595;BME280;8410;52.532;13.336;2023-04-20T01:40:10;101617.25;;;7.62;100.00
16595;BME280;8410;52.532;13.336;2023-04-20T01:42:38;101622.97;;;7.34;100.00
16595;BME280;8410;52.532;13.336;2023-04-20T01:45:19;101622.41;;;7.63;100.00
16595;BME280;8410;52.532;13.336;2023-04-20T01:47:47;101620.16;;;7.27;100.00
16595;BME280;8410;52.532;13.336;2023-04-20T01:50:14;101606.06;;;7.60;100.00
16595;BME280;8410;52.532;13.336;2023-04-20T01:52:42;101595.03;;;8.07;100.00
16595;BME280;8410;52.532;13.336;2023-04-20T01:55:10;101593.97;;;8.02;100.00
16595;BME280;8410;52.532;13.336;2023-04-20T01:57:38;101607.88;;;7.62;98.96
16595;BME280;8410;52.532;13.336;2023-04-20T02:00:06;101610.78;;;6.86;100.00
16595;BME280;8410;52.532;13.336;2023-04-20T02:02:35;101602.31;;;7.08;100.00
16595;BME280;8410;52.532;13.336;2023-04-20T02:05:03;101610.44;;;6.98;100.00
16595;BME280;8410;52.532;13.336;2023-04-20T02:07:31;101612.41;;;7.26;100.00
16595;BME280;8410;52.532;13.336;2023-04-20T02:09:58;101612.38;;;7.03;100.00
16595;BME280;8410;52.532;13.336;2023-04-20T02:12:27;101616.56;;;7.22;100.00
16595;BME280;8410;52.532;13.336;2023-04-20T02:14:55;101603.72;;;7.66;100.00
16595;BME280;8410;52.532;13.336;2023-04-20T02:17:22;101605.00;;;7.55;100.00
16595;BME280;8410;52.532;13.336;2023-04-20T02:19:50;101606.00;;;7.58;100.00
16595;BME280;8410;52.532;13.336;2023-04-20T02:22:17;101619.53;;;7.12;100.00
16595;BME280;8410;52.532;13.336;2023-04-20T02:24:45;101616.13;;;7.55;100.00
16595;BME280;8410;52.532;13.336;2023-04-20T02:27:12;101622.66;;;7.26;100.00
16595;BME280;8410;52.532;13.336;2023-04-20T02:29:41;101626.41;;;7.13;100.00
16595;BME280;8410;52.532;13.336;2023-04-20T02:32:08;101617.38;;;7.65;100.00
16595;BME280;8410;52.532;13.336;2023-04-20T02:34:36;101616.00;;;7.52;100.00
16595;BME280;8410;52.532;13.336;2023-04-20T02:37:03;101607.94;;;8.10;100.00
16595;BME280;8410;52.532;13.336;2023-04-20T02:39:31;101612.47;;;7.71;100.00
16595;BME280;8410;52.532;13.336;2023-04-20T02:41:58;101607.59;;;8.01;100.00
16595;BME280;8410;52.532;13.336;2023-04-20T02:44:26;101607.59;;;8.01;97.58
16595;BME280;8410;52.532;13.336;2023-04-20T02:46:55;101615.78;;;7.46;100.00
16595;BME280;8410;52.532;13.336;2023-04-20T02:49:23;101602.38;;;8.22;100.00
16595;BME280;8410;52.532;13.336;2023-04-20T02:51:50;101601.69;;;7.57;100.00
16595;BME280;8410;52.532;13.336;2023-04-20T02:54:17;101601.53;;;8.46;98.85
16595;BME280;8410;52.532;13.336;2023-04-20T02:56:45;101610.31;;;7.82;98.33
16595;BME280;8410;52.532;13.336;2023-04-20T02:59:12;101611.81;;;7.77;100.00
16595;BME280;8410;52.532;13.336;2023-04-20T03:01:40;101615.22;;;7.76;98.72
16595;BME280;8410;52.532;13.336;2023-04-20T03:04:09;101618.81;;;7.58;100.00
16595;BME280;8410;52.532;13.336;2023-04-20T03:06:37;101601.63;;;8.25;100.00
16595;BME280;8410;52.532;13.336;2023-04-20T03:09:05;101612.16;;;8.82;97.29
16595;BME280;8410;52.532;13.336;2023-04-20T03:11:34;101600.63;;;8.69;95.09
16595;BME280;8410;52.532;13.336;2023-04-20T03:14:01;101607.53;;;8.46;96.32
16595;BME280;8410;52.532;13.336;2023-04-20T03:16:28;101606.22;;;8.83;96.10
16595;BME280;8410;52.532;13.336;2023-04-20T03:18:56;101609.19;;;8.95;96.55
16595;BME280;8410;52.532;13.336;2023-04-20T03:21:25;101601.16;;;8.12;96.96
16595;BME280;8410;52.532;13.336;2023-04-20T03:23:53;101614.16;;;7.70;100.00
16595;BME280;8410;52.532;13.336;2023-04-20T03:26:21;101612.03;;;7.83;100.00
16595;BME280;8410;52.532;13.336;2023-04-20T03:28:49;101609.44;;;8.52;99.57
16595;BME280;8410;52.532;13.336;2023-04-20T03:31:17;101615.66;;;8.10;100.00
16595;BME280;8410;52.532;13.336;2023-04-20T03:33:45;101613.41;;;8.68;100.00
16595;BME280;8410;52.532;13.336;2023-04-20T03:36:12;101618.88;;;8.29;99.00
16595;BME280;8410;52.532;13.336;2023-04-20T03:38:41;101618.41;;;8.39;98.33
16595;BME280;8410;52.532;13.336;2023-04-20T03:41:09;101620.88;;;9.38;95.85
16595;BME280;8410;52.532;13.336;2023-04-20T03:43:36;101634.53;;;7.90;98.72
16595;BME280;8410;52.532;13.336;2023-04-20T03:46:04;101639.22;;;7.13;100.00
16595;BME280;8410;52.532;13.336;2023-04-20T03:48:31;101631.09;;;8.36;100.00
16595;BME280;8410;52.532;13.336;2023-04-20T03:50:59;101635.91;;;7.16;100.00
16595;BME280;8410;52.532;13.336;2023-04-20T03:53:26;101612.72;;;8.01;100.00
16595;BME280;8410;52.532;13.336;2023-04-20T03:55:56;101618.78;;;8.50;100.00
16595;BME280;8410;52.532;13.336;2023-04-20T03:58:23;101628.31;;;7.83;100.00
16595;BME280;8410;52.532;13.336;2023-04-20T04:00:51;101622.28;;;7.83;100.00
16595;BME280;8410;52.532;13.336;2023-04-20T04:03:18;101633.84;;;7.71;100.00
16595;BME280;8410;52.532;13.336;2023-04-20T04:05:46;101628.75;;;7.50;100.00
16595;BME280;8410;52.532;13.336;2023-04-20T04:08:14;101622.91;;;8.22;100.00
16595;BME280;8410;52.532;13.336;2023-04-20T04:10:41;101618.91;;;8.06;100.00
16595;BME280;8410;52.532;13.336;2023-04-20T04:13:10;101624.63;;;8.46;100.00
16595;BME280;8410;52.532;13.336;2023-04-20T04:15:37;101629.41;;;7.90;100.00
16595;BME280;8410;52.532;13.336;2023-04-20T04:18:05;101627.41;;;7.83;100.00
16595;BME280;8410;52.532;13.336;2023-04-20T04:20:32;101628.53;;;7.89;100.00
16595;BME280;8410;52.532;13.336;2023-04-20T04:23:00;101633.19;;;8.00;100.00
16595;BME280;8410;52.532;13.336;2023-04-20T04:25:27;101629.13;;;8.29;100.00
16595;BME280;8410;52.532;13.336;2023-04-20T04:27:55;101631.66;;;8.51;99.81
16595;BME280;8410;52.532;13.336;2023-04-20T04:30:24;101631.50;;;8.47;100.00
16595;BME280;8410;52.532;13.336;2023-04-20T04:32:52;101648.97;;;7.65;100.00
16595;BME280;8410;52.532;13.336;2023-04-20T04:35:20;101635.59;;;7.72;100.00
16595;BME280;8410;52.532;13.336;2023-04-20T04:37:48;101644.56;;;7.84;100.00
16595;BME280;8410;52.532;13.336;2023-04-20T04:40:16;101634.88;;;7.99;100.00
16595;BME280;8410;52.532;13.336;2023-04-20T04:42:43;101652.66;;;7.28;100.00
16595;BME280;8410;52.532;13.336;2023-04-20T04:45:13;101650.94;;;7.50;100.00
16595;BME280;8410;52.532;13.336;2023-04-20T04:47:41;101650.13;;;7.51;100.00
16595;BME280;8410;52.532;13.336;2023-04-20T04:50:10;101654.47;;;7.54;100.00
16595;BME280;8410;52.532;13.336;2023-04-20T04:52:38;101655.69;;;7.62;100.00
16595;BME280;8410;52.532;13.336;2023-04-20T04:55:06;101657.16;;;8.00;100.00
16595;BME280;8410;52.532;13.336;2023-04-20T04:57:35;101663.69;;;7.92;100.00
16595;BME280;8410;52.532;13.336;2023-04-20T05:00:05;101652.81;;;8.22;100.00
16595;BME280;8410;52.532;13.336;2023-04-20T05:02:34;101652.84;;;8.46;96.80
16595;BME280;8410;52.532;13.336;2023-04-20T05:05:04;101656.34;;;9.23;94.50
16595;BME280;8410;52.532;13.336;2023-04-20T05:07:35;101665.41;;;7.93;97.79
16595;BME280;8410;52.532;13.336;2023-04-20T05:10:04;101650.81;;;8.37;99.79
16595;BME280;8410;52.532;13.336;2023-04-20T05:12:31;101635.91;;;9.00;97.26
16595;BME280;8410;52.532;13.336;2023-04-20T05:14:59;101635.75;;;8.96;94.61
16595;BME280;8410;52.532;13.336;2023-04-20T05:17:26;101642.75;;;9.27;92.96
16595;BME280;8410;52.532;13.336;2023-04-20T05:19:54;101655.75;;;9.59;91.96
16595;BME280;8410;52.532;13.336;2023-04-20T05:22:23;101655.94;;;9.92;90.57
16595;BME280;8410;52.532;13.336;2023-04-20T05:24:50;101655.94;;;10.22;88.93
16595;BME280;8410;52.532;13.336;2023-04-20T05:27:18;101663.13;;;9.21;90.59
16595;BME280;8410;52.532;13.336;2023-04-20T05:29:45;101658.09;;;8.73;94.82
16595;BME280;8410;52.532;13.336;2023-04-20T05:32:13;101661.25;;;8.66;94.49
16595;BME280;8410;52.532;13.336;2023-04-20T05:34:40;101657.88;;;8.43;95.61
16595;BME280;8410;52.532;13.336;2023-04-20T05:37:08;101662.50;;;8.77;95.91
16595;BME280;8410;52.532;13.336;2023-04-20T05:39:37;101658.22;;;9.01;93.46
16595;BME280;8410;52.532;13.336;2023-04-20T05:42:04;101665.00;;;9.25;92.77
16595;BME280;8410;52.532;13.336;2023-04-20T05:44:31;101661.59;;;8.75;93.52
16595;BME280;8410;52.532;13.336;2023-04-20T05:47:01;101664.94;;;9.50;91.26
16595;BME280;8410;52.532;13.336;2023-04-20T05:49:31;101669.97;;;10.03;88.71
16595;BME280;8410;52.532;13.336;2023-04-20T05:51:59;101672.09;;;10.47;87.52
16595;BME280;8410;52.532;13.336;2023-04-20T05:54:26;101677.75;;;10.65;86.36
16595;BME280;8410;52.532;13.336;2023-04-20T05:56:55;101669.97;;;10.03;89.03
16595;BME280;8410;52.532;13.336;2023-04-20T05:59:24;101667.88;;;9.90;86.27
16595;BME280;8410;52.532;13.336;2023-04-20T06:01:52;101670.16;;;10.09;87.91
16595;BME280;8410;52.532;13.336;2023-04-20T06:04:19;101669.16;;;10.33;85.89
16595;BME280;8410;52.532;13.336;2023-04-20T06:06:47;101673.13;;;9.66;88.50
16595;BME280;8410;52.532;13.336;2023-04-20T06:09:14;101670.44;;;10.19;88.57
16595;BME280;8410;52.532;13.336;2023-04-20T06:11:42;101682.97;;;10.68;85.36
16595;BME280;8410;52.532;13.336;2023-04-20T06:14:11;101685.47;;;9.49;89.49
16595;BME280;8410;52.532;13.336;2023-04-20T06:16:39;101699.50;;;9.33;91.00
16595;BME280;8410;52.532;13.336;2023-04-20T06:19:07;101686.91;;;9.68;87.89
16595;BME280;8410;52.532;13.336;2023-04-20T06:21:35;101690.09;;;10.16;87.51
16595;BME280;8410;52.532;13.336;2023-04-20T06:24:03;101688.84;;;10.63;84.77
16595;BME280;8410;52.532;13.336;2023-04-20T06:26:30;101693.22;;;10.65;84.49
16595;BME280;8410;52.532;13.336;2023-04-20T06:28:58;101693.44;;;10.74;86.48
16595;BME280;8410;52.532;13.336;2023-04-20T06:31:27;101687.88;;;10.29;86.17
16595;BME280;8410;52.532;13.336;2023-04-20T06:33:54;101702.97;;;9.35;88.83
16595;BME280;8410;52.532;13.336;2023-04-20T06:36:22;101703.81;;;9.09;89.83
16595;BME280;8410;52.532;13.336;2023-04-20T06:38:49;101710.81;;;9.13;92.48
16595;BME280;8410;52.532;13.336;2023-04-20T06:41:17;101704.44;;;10.08;86.76
16595;BME280;8410;52.532;13.336;2023-04-20T06:43:44;101707.00;;;9.53;88.05
16595;BME280;8410;52.532;13.336;2023-04-20T06:46:12;101706.19;;;9.82;89.43
16595;BME280;8410;52.532;13.336;2023-04-20T06:48:40;101691.13;;;10.52;86.91
16595;BME280;8410;52.532;13.336;2023-04-20T06:51:08;101694.94;;;10.66;84.77
16595;BME280;8410;52.532;13.336;2023-04-20T06:53:36;101698.28;;;10.32;85.87
16595;BME280;8410;52.532;13.336;2023-04-20T06:56:03;101698.91;;;11.20;85.58
16595;BME280;8410;52.532;13.336;2023-04-20T06:58:31;101693.06;;;10.60;85.13
16595;BME280;8410;52.532;13.336;2023-04-20T07:00:58;101698.16;;;10.27;84.69
16595;BME280;8410;52.532;13.336;2023-04-20T07:03:26;101694.38;;;10.76;84.77
16595;BME280;8410;52.532;13.336;2023-04-20T07:05:55;101692.81;;;9.92;86.75
16595;BME280;8410;52.532;13.336;2023-04-20T07:08:23;101683.44;;;11.18;84.86
16595;BME280;8410;52.532;13.336;2023-04-20T07:10:50;101695.69;;;9.22;87.90
16595;BME280;8410;52.532;13.336;2023-04-20T07:13:18;101699.69;;;9.39;88.77
16595;BME280;8410;52.532;13.336;2023-04-20T07:15:45;101701.63;;;10.01;87.95
16595;BME280;8410;52.532;13.336;2023-04-20T07:18:12;101714.69;;;9.80;90.30
16595;BME280;8410;52.532;13.336;2023-04-20T07:20:40;101701.06;;;10.40;87.32
16595;BME280;8410;52.532;13.336;2023-04-20T07:23:09;101709.38;;;9.21;90.15
16595;BME280;8410;52.532;13.336;2023-04-20T07:25:36;101716.03;;;8.90;92.43
16595;BME280;8410;52.532;13.336;2023-04-20T07:28:04;101726.31;;;9.16;90.68
16595;BME280;8410;52.532;13.336;2023-04-20T07:30:31;101721.28;;;9.19;91.75
16595;BME280;8410;52.532;13.336;2023-04-20T07:32:59;101722.81;;;9.14;91.71
16595;BME280;8410;52.532;13.336;2023-04-20T07:35:26;101724.13;;;9.54;91.19
16595;BME280;8410;52.532;13.336;2023-04-20T07:37:54;101720.31;;;9.95;89.22
16595;BME280;8410;52.532;13.336;2023-04-20T07:40:23;101717.63;;;10.79;83.79
16595;BME280;8410;52.532;13.336;2023-04-20T07:42:51;101720.97;;;11.09;82.62
16595;BME280;8410;52.532;13.336;2023-04-20T07:45:18;101728.91;;;10.24;86.15
16595;BME280;8410;52.532;13.336;2023-04-20T07:47:47;101727.50;;;10.34;87.15
16595;BME280;8410;52.532;13.336;2023-04-20T07:50:16;101721.25;;;11.54;81.15
16595;BME280;8410;52.532;13.336;2023-04-20T07:52:44;101724.81;;;11.24;81.24
16595;BME280;8410;52.532;13.336;2023-04-20T07:55:11;101719.91;;;12.47;78.52
16595;BME280;8410;52.532;13.336;2023-04-20T07:57:41;101725.28;;;12.16;77.40
16595;BME280;8410;52.532;13.336;2023-04-20T08:00:09;101726.13;;;10.75;82.66
16595;BME280;8410;52.532;13.336;2023-04-20T08:02:38;101731.75;;;11.25;80.80
16595;BME280;8410;52.532;13.336;2023-04-20T08:05:06;101735.66;;;10.21;86.48
16595;BME280;8410;52.532;13.336;2023-04-20T08:07:35;101738.06;;;11.05;83.25
16595;BME280;8410;52.532;13.336;2023-04-20T08:10:04;101731.44;;;11.84;81.61
16595;BME280;8410;52.532;13.336;2023-04-20T08:12:31;101721.09;;;12.21;77.76
16595;BME280;8410;52.532;13.336;2023-04-20T08:15:00;101733.34;;;10.28;82.60
16595;BME280;8410;52.532;13.336;2023-04-20T08:17:31;101736.91;;;9.78;87.50
16595;BME280;8410;52.532;13.336;2023-04-20T08:19:59;101742.22;;;9.82;87.82
16595;BME280;8410;52.532;13.336;2023-04-20T08:22:27;101739.09;;;9.92;86.86
16595;BME280;8410;52.532;13.336;2023-04-20T08:24:56;101735.59;;;9.90;88.22
16595;BME280;8410;52.532;13.336;2023-04-20T08:27:23;101736.56;;;10.21;87.70
16595;BME280;8410;52.532;13.336;2023-04-20T08:29:51;101729.44;;;11.38;83.11
16595;BME280;8410;52.532;13.336;2023-04-20T08:32:20;101733.53;;;11.30;83.23
16595;BME280;8410;52.532;13.336;2023-04-20T08:34:49;101741.28;;;10.34;83.50
16595;BME280;8410;52.532;13.336;2023-04-20T08:37:16;101734.28;;;10.92;83.20
16595;BME280;8410;52.532;13.336;2023-04-20T08:39:44;101741.78;;;10.53;82.07
16595;BME280;8410;52.532;13.336;2023-04-20T08:42:11;101736.44;;;11.09;83.96
16595;BME280;8410;52.532;13.336;2023-04-20T08:44:39;101737.97;;;11.34;80.89
16595;BME280;8410;52.532;13.336;2023-04-20T08:47:08;101738.88;;;11.72;80.15
16595;BME280;8410;52.532;13.336;2023-04-20T08:49:37;101749.44;;;10.23;83.95
16595;BME280;8410;52.532;13.336;2023-04-20T08:52:05;101757.22;;;10.53;83.04
16595;BME280;8410;52.532;13.336;2023-04-20T08:54:36;101747.16;;;10.91;82.55
16595;BME280;8410;52.532;13.336;2023-04-20T08:57:14;101758.94;;;9.97;85.69
16595;BME280;8410;52.532;13.336;2023-04-20T08:59:42;101765.59;;;9.90;87.37
16595;BME280;8410;52.532;13.336;2023-04-20T09:02:10;101759.94;;;10.00;87.54
16595;BME280;8410;52.532;13.336;2023-04-20T09:04:39;101748.78;;;10.28;88.71
16595;BME280;8410;52.532;13.336;2023-04-20T09:07:16;101757.03;;;10.18;89.75
16595;BME280;8410;52.532;13.336;2023-04-20T09:09:53;101760.97;;;9.53;91.17
16595;BME280;8410;52.532;13.336;2023-04-20T09:12:20;101753.78;;;9.69;90.11
16595;BME280;8410;52.532;13.336;2023-04-20T09:14:48;101757.66;;;9.57;92.33
16595;BME280;8410;52.532;13.336;2023-04-20T09:17:17;101753.44;;;9.59;92.61
16595;BME280;8410;52.532;13.336;2023-04-20T09:19:52;101756.94;;;9.10;94.36
16595;BME280;8410;52.532;13.336;2023-04-20T09:22:28;101749.81;;;9.01;95.84
16595;BME280;8410;52.532;13.336;2023-04-20T09:24:56;101761.97;;;9.07;96.89
16595;BME280;8410;52.532;13.336;2023-04-20T09:27:23;101756.34;;;9.95;95.47
16595;BME280;8410;52.532;13.336;2023-04-20T09:29:58;101750.16;;;9.90;92.21
16595;BME280;8410;52.532;13.336;2023-04-20T09:32:27;101751.63;;;9.82;92.88
16595;BME280;8410;52.532;13.336;2023-04-20T09:34:56;101742.25;;;10.40;91.38
16595;BME280;8410;52.532;13.336;2023-04-20T09:37:23;101756.13;;;10.16;91.86
16595;BME280;8410;52.532;13.336;2023-04-20T09:39:54;101746.63;;;10.15;93.81
16595;BME280;8410;52.532;13.336;2023-04-20T09:42:27;101742.97;;;10.07;93.16
16595;BME280;8410;52.532;13.336;2023-04-20T09:44:56;101750.06;;;10.14;93.28
16595;BME280;8410;52.532;13.336;2023-04-20T09:47:23;101742.44;;;10.76;91.08
16595;BME280;8410;52.532;13.336;2023-04-20T09:49:53;101745.63;;;9.81;94.94
16595;BME280;8410;52.532;13.336;2023-04-20T09:52:25;101744.25;;;9.92;94.58
16595;BME280;8410;52.532;13.336;2023-04-20T09:54:53;101734.97;;;9.98;95.36
16595;BME280;8410;52.532;13.336;2023-04-20T09:57:21;101734.66;;;10.74;91.50
16595;BME280;8410;52.532;13.336;2023-04-20T09:59:50;101740.16;;;11.53;86.83
16595;BME280;8410;52.532;13.336;2023-04-20T10:02:18;101736.34;;;10.74;89.34
16595;BME280;8410;52.532;13.336;2023-04-20T10:04:52;101737.31;;;10.47;91.01
16595;BME280;8410;52.532;13.336;2023-04-20T10:07:24;101724.25;;;10.70;91.73
16595;BME280;8410;52.532;13.336;2023-04-20T10:10:03;101733.63;;;10.68;91.11
16595;BME280;8410;52.532;13.336;2023-04-20T10:12:31;101723.97;;;10.92;90.41
16595;BME280;8410;52.532;13.336;2023-04-20T10:15:01;101725.53;;;11.17;88.17
16595;BME280;8410;52.532;13.336;2023-04-20T10:17:30;101723.94;;;10.59;90.72
16595;BME280;8410;52.532;13.336;2023-04-20T10:19:58;101713.31;;;11.12;88.92
16595;BME280;8410;52.532;13.336;2023-04-20T10:22:28;101720.88;;;11.04;89.20
16595;BME280;8410;52.532;13.336;2023-04-20T10:24:58;101722.53;;;11.02;88.84
16595;BME280;8410;52.532;13.336;2023-04-20T10:27:26;101726.31;;;11.50;86.70
16595;BME280;8410;52.532;13.336;2023-04-20T10:29:54;101721.66;;;10.40;89.39
16595;BME280;8410;52.532;13.336;2023-04-20T10:32:22;101723.19;;;10.63;92.07
16595;BME280;8410;52.532;13.336;2023-04-20T10:35:01;101723.25;;;10.65;88.51
16595;BME280;8410;52.532;13.336;2023-04-20T10:37:30;101715.53;;;10.66;89.58
16595;BME280;8410;52.532;13.336;2023-04-20T10:39:58;101716.31;;;10.94;87.63
16595;BME280;8410;52.532;13.336;2023-04-20T10:42:25;101708.91;;;12.15;85.12
16595;BME280;8410;52.532;13.336;2023-04-20T10:44:55;101690.34;;;12.77;83.84
16595;BME280;8410;52.532;13.336;2023-04-20T10:47:26;101699.38;;;11.38;84.40
16595;BME280;8410;52.532;13.336;2023-04-20T10:50:04;101691.19;;;11.91;84.38
16595;BME280;8410;52.532;13.336;2023-04-20T10:52:35;101688.88;;;11.65;83.25
16595;BME280;8410;52.532;13.336;2023-04-20T10:55:03;101686.38;;;12.06;82.72
16595;BME280;8410;52.532;13.336;2023-04-20T10:57:32;101684.44;;;11.96;82.58
16595;BME280;8410;52.532;13.336;2023-04-20T11:00:12;101685.75;;;11.44;83.62
16595;BME280;8410;52.532;13.336;2023-04-20T11:02:45;101686.53;;;11.05;87.35
16595;BME280;8410;52.532;13.336;2023-04-20T11:05:14;101687.75;;;11.19;86.64
16595;BME280;8410;52.532;13.336;2023-04-20T11:07:53;101676.13;;;11.72;86.08
16595;BME280;8410;52.532;13.336;2023-04-20T11:10:24;101685.75;;;11.79;85.22
16595;BME280;8410;52.532;13.336;2023-04-20T11:13:02;101684.66;;;11.69;87.27
16595;BME280;8410;52.532;13.336;2023-04-20T11:15:30;101673.47;;;12.08;86.58
16595;BME280;8410;52.532;13.336;2023-04-20T11:18:05;101669.28;;;11.74;85.20
16595;BME280;8410;52.532;13.336;2023-04-20T11:20:32;101671.06;;;12.14;85.35
16595;BME280;8410;52.532;13.336;2023-04-20T11:23:01;101673.81;;;12.22;83.01
16595;BME280;8410;52.532;13.336;2023-04-20T11:25:31;101673.41;;;11.67;85.81
16595;BME280;8410;52.532;13.336;2023-04-20T11:28:04;101672.16;;;11.86;85.41
16595;BME280;8410;52.532;13.336;2023-04-20T11:30:37;101673.91;;;11.87;85.88
16595;BME280;8410;52.532;13.336;2023-04-20T11:33:04;101678.84;;;12.60;82.69
16595;BME280;8410;52.532;13.336;2023-04-20T11:35:35;101676.44;;;12.25;84.68
16595;BME280;8410;52.532;13.336;2023-04-20T11:38:04;101678.84;;;12.60;83.56
16595;BME280;8410;52.532;13.336;2023-04-20T11:40:32;101666.41;;;13.34;81.62
16595;BME280;8410;52.532;13.336;2023-04-20T11:42:59;101658.19;;;13.63;78.73
16595;BME280;8410;52.532;13.336;2023-04-20T11:45:30;101657.44;;;13.68;79.73
16595;BME280;8410;52.532;13.336;2023-04-20T11:48:01;101651.00;;;14.04;79.09
16595;BME280;8410;52.532;13.336;2023-04-20T11:50:30;101651.00;;;12.43;82.87
16595;BME280;8410;52.532;13.336;2023-04-20T11:52:57;101656.59;;;12.22;86.12
16595;BME280;8410;52.532;13.336;2023-04-20T11:55:26;101650.63;;;12.25;85.54
16595;BME280;8410;52.532;13.336;2023-04-20T11:57:53;101648.25;;;13.33;82.60
16595;BME280;8410;52.532;13.336;2023-04-20T12:00:21;101641.72;;;13.03;81.74
16595;BME280;8410;52.532;13.336;2023-04-20T12:02:49;101636.06;;;13.83;80.56
16595;BME280;8410;52.532;13.336;2023-04-20T12:05:17;101645.84;;;13.43;79.62
16595;BME280;8410;52.532;13.336;2023-04-20T12:07:44;101640.81;;;13.01;83.35
16595;BME280;8410;52.532;13.336;2023-04-20T12:10:11;101642.53;;;12.53;86.12
16595;BME280;8410;52.532;13.336;2023-04-20T12:12:40;101625.91;;;13.36;84.67
16595;BME280;8410;52.532;13.336;2023-04-20T12:15:08;101632.66;;;13.27;84.11
16595;BME280;8410;52.532;13.336;2023-04-20T12:17:36;101625.09;;;14.03;80.45
16595;BME280;8410;52.532;13.336;2023-04-20T12:20:04;101623.72;;;14.32;81.19
16595;BME280;8410;52.532;13.336;2023-04-20T12:22:34;101614.94;;;15.07;77.02
16595;BME280;8410;52.532;13.336;2023-04-20T12:25:01;101622.31;;;13.87;81.12
16595;BME280;8410;52.532;13.336;2023-04-20T12:27:29;101620.41;;;14.46;79.56
16595;BME280;8410;52.532;13.336;2023-04-20T12:29:58;101628.88;;;13.61;82.59
16595;BME280;8410;52.532;13.336;2023-04-20T12:32:25;101619.19;;;13.49;84.39
16595;BME280;8410;52.532;13.336;2023-04-20T12:34:53;101613.13;;;14.95;77.64
16595;BME280;8410;52.532;13.336;2023-04-20T12:37:21;101607.97;;;13.49;82.77
16595;BME280;8410;52.532;13.336;2023-04-20T12:39:48;101611.88;;;13.81;81.31
16595;BME280;8410;52.532;13.336;2023-04-20T12:42:16;101606.69;;;13.81;80.29
16595;BME280;8410;52.532;13.336;2023-04-20T12:44:43;101609.00;;;14.28;78.58
16595;BME280;8410;52.532;13.336;2023-04-20T12:47:12;101608.88;;;13.51;79.46
16595;BME280;8410;52.532;13.336;2023-04-20T12:49:40;101595.56;;;13.85;79.51
16595;BME280;8410;52.532;13.336;2023-04-20T12:52:07;101589.53;;;13.89;77.68
16595;BME280;8410;52.532;13.336;2023-04-20T12:54:34;101595.06;;;14.17;77.49
16595;BME280;8410;52.532;13.336;2023-04-20T12:57:02;101582.91;;;14.10;78.68
16595;BME280;8410;52.532;13.336;2023-04-20T12:59:30;101592.72;;;14.43;76.31